QFA12 KLAX-YSSY
Flight info
| Callsign | QFA12 |
|---|---|
| Flight time | N/A |
| Altitude | 32000 |
| Route | SUMMR2 FICKY DCT TONYS B454 ARENS/N0506F340 B454 BORIC DCT 15N135W 11N140W 07N145W/N0502F360 03N150W 01S155W 06S160W 10S165W/N0494F380 DCT DARMA DCT 15S172W DCT KILAN B450 DOLSI DCT 30S170E/N0493F400 DCT SARAP G595 ATNAT DCT RIKNI N774 MARLN |
| Aircraft | A388/J-SADE2E3FGHIJ3J4J5M1RWXY/LB1D1 |
Departure
| Time | 2026-04-22 19:36 |
|---|---|
| Airport | Los Angeles International Airport (KLAX) |
Arrival
| Time | N/A |
|---|---|
| Airport | Sydney Kingsford Smith International Airport (YSSY) |
| Time | Latitude | Longitude | Altitude | Speed | Heading |
|---|---|---|---|---|---|
| 2026-04-22 19:16 | 33.93943 | -118.41063 | 99 ft | 0 kts | 82° |
| 2026-04-22 19:22 | 33.93941 | -118.41077 | 98 ft | 4 kts | 82° |
| 2026-04-22 19:23 | 33.93938 | -118.41110 | 97 ft | 4 kts | 84° |
| 2026-04-22 19:23 | 33.93935 | -118.41138 | 96 ft | 4 kts | 86° |
| 2026-04-22 19:23 | 33.93941 | -118.41163 | 98 ft | 4 kts | 146° |
| 2026-04-22 19:23 | 33.93965 | -118.41175 | 97 ft | 4 kts | 169° |
| 2026-04-22 19:24 | 33.93982 | -118.41178 | 97 ft | 1 kts | 173° |
| 2026-04-22 19:24 | 33.93984 | -118.41179 | 100 ft | 0 kts | 173° |
| 2026-04-22 19:26 | 33.93981 | -118.41178 | 97 ft | 1 kts | 173° |
| 2026-04-22 19:27 | 33.93949 | -118.41173 | 98 ft | 6 kts | 173° |
| 2026-04-22 19:27 | 33.93907 | -118.41167 | 100 ft | 6 kts | 173° |
| 2026-04-22 19:27 | 33.93862 | -118.41161 | 99 ft | 6 kts | 173° |
| 2026-04-22 19:27 | 33.93821 | -118.41155 | 100 ft | 6 kts | 173° |
| 2026-04-22 19:28 | 33.93783 | -118.41146 | 100 ft | 4 kts | 149° |
| 2026-04-22 19:28 | 33.93769 | -118.41121 | 101 ft | 4 kts | 97° |
| 2026-04-22 19:28 | 33.93769 | -118.41072 | 101 ft | 9 kts | 86° |
| 2026-04-22 19:28 | 33.93778 | -118.40979 | 98 ft | 14 kts | 83° |
| 2026-04-22 19:29 | 33.93791 | -118.40855 | 99 ft | 16 kts | 83° |
| 2026-04-22 19:29 | 33.93804 | -118.40720 | 100 ft | 17 kts | 83° |
| 2026-04-22 19:29 | 33.93819 | -118.40571 | 101 ft | 19 kts | 83° |
| 2026-04-22 19:29 | 33.93835 | -118.40413 | 101 ft | 19 kts | 83° |
| 2026-04-22 19:30 | 33.93841 | -118.40358 | 101 ft | 20 kts | 83° |
| 2026-04-22 19:30 | 33.93871 | -118.40073 | 102 ft | 21 kts | 83° |
| 2026-04-22 19:30 | 33.93890 | -118.39891 | 101 ft | 22 kts | 83° |
| 2026-04-22 19:30 | 33.93909 | -118.39700 | 101 ft | 23 kts | 84° |
| 2026-04-22 19:31 | 33.93929 | -118.39507 | 100 ft | 22 kts | 83° |
| 2026-04-22 19:31 | 33.93948 | -118.39321 | 98 ft | 23 kts | 83° |
| 2026-04-22 19:31 | 33.93967 | -118.39127 | 102 ft | 24 kts | 83° |
| 2026-04-22 19:31 | 33.93987 | -118.38929 | 99 ft | 24 kts | 83° |
| 2026-04-22 19:32 | 33.94001 | -118.38793 | 101 ft | 25 kts | 83° |
| 2026-04-22 19:32 | 33.94019 | -118.38623 | 101 ft | 13 kts | 82° |
| 2026-04-22 19:32 | 33.94031 | -118.38511 | 100 ft | 15 kts | 82° |
| 2026-04-22 19:32 | 33.94046 | -118.38383 | 100 ft | 16 kts | 83° |
| 2026-04-22 19:33 | 33.94057 | -118.38241 | 100 ft | 18 kts | 83° |
| 2026-04-22 19:33 | 33.94070 | -118.38117 | 100 ft | 10 kts | 82° |
| 2026-04-22 19:33 | 33.94073 | -118.38030 | 98 ft | 9 kts | 119° |
| 2026-04-22 19:33 | 33.94027 | -118.38005 | 100 ft | 7 kts | 190° |
| 2026-04-22 19:34 | 33.93993 | -118.38025 | 101 ft | 2 kts | 230° |
| 2026-04-22 19:34 | 33.93984 | -118.38044 | 99 ft | 3 kts | 245° |
| 2026-04-22 19:34 | 33.93979 | -118.38058 | 100 ft | 0 kts | 259° |
| 2026-04-22 19:35 | 33.93975 | -118.38110 | 99 ft | 19 kts | 262° |
| 2026-04-22 19:35 | 33.93930 | -118.38555 | 104 ft | 88 kts | 263° |
| 2026-04-22 19:35 | 33.93831 | -118.39516 | 101 ft | 139 kts | 263° |
| 2026-04-22 19:35 | 33.93715 | -118.40795 | 200 ft | 162 kts | 261° |
| 2026-04-22 19:36 | 33.93590 | -118.42169 | 544 ft | 169 kts | 261° |
| 2026-04-22 19:36 | 33.93439 | -118.43597 | 1013 ft | 172 kts | 260° |
| 2026-04-22 19:36 | 33.93290 | -118.45022 | 1554 ft | 173 kts | 263° |
| 2026-04-22 19:36 | 33.93145 | -118.46463 | 2085 ft | 174 kts | 262° |
| 2026-04-22 19:37 | 33.93008 | -118.47945 | 2261 ft | 184 kts | 263° |
| 2026-04-22 19:37 | 33.92872 | -118.49525 | 2348 ft | 196 kts | 264° |
| 2026-04-22 19:37 | 33.92735 | -118.51195 | 2441 ft | 204 kts | 263° |
| 2026-04-22 19:37 | 33.92592 | -118.52940 | 2497 ft | 218 kts | 264° |
| 2026-04-22 19:38 | 33.92437 | -118.54830 | 2711 ft | 234 kts | 264° |
| 2026-04-22 19:38 | 33.92269 | -118.56864 | 2853 ft | 254 kts | 264° |
| 2026-04-22 19:38 | 33.92095 | -118.58985 | 3452 ft | 254 kts | 264° |
| 2026-04-22 19:38 | 33.91920 | -118.61096 | 4151 ft | 252 kts | 265° |
| 2026-04-22 19:39 | 33.91762 | -118.63219 | 4676 ft | 258 kts | 269° |
| 2026-04-22 19:39 | 33.91764 | -118.65377 | 5347 ft | 255 kts | 271° |
| 2026-04-22 19:39 | 33.91766 | -118.67529 | 5873 ft | 261 kts | 271° |
| 2026-04-22 19:39 | 33.91759 | -118.69723 | 6441 ft | 263 kts | 271° |
| 2026-04-22 19:40 | 33.91749 | -118.71924 | 7036 ft | 263 kts | 271° |
| 2026-04-22 19:40 | 33.91739 | -118.74129 | 7615 ft | 264 kts | 271° |
| 2026-04-22 19:40 | 33.91729 | -118.76312 | 8188 ft | 265 kts | 271° |
| 2026-04-22 19:40 | 33.91719 | -118.78564 | 8784 ft | 265 kts | 271° |
| 2026-04-22 19:41 | 33.91709 | -118.80792 | 9354 ft | 267 kts | 271° |
| 2026-04-22 19:41 | 33.91698 | -118.83032 | 9933 ft | 269 kts | 271° |
| 2026-04-22 19:41 | 33.91709 | -118.85275 | 10283 ft | 278 kts | 272° |
| 2026-04-22 19:41 | 33.91783 | -118.87658 | 10417 ft | 293 kts | 274° |
| 2026-04-22 19:42 | 33.91880 | -118.90203 | 10537 ft | 307 kts | 273° |
| 2026-04-22 19:42 | 33.91974 | -118.92823 | 10749 ft | 318 kts | 273° |
| 2026-04-22 19:42 | 33.92058 | -118.95450 | 11231 ft | 318 kts | 273° |
| 2026-04-22 19:42 | 33.92137 | -118.98114 | 11726 ft | 319 kts | 272° |
| 2026-04-22 19:43 | 33.91554 | -119.03427 | 12743 ft | 324 kts | 254° |
| 2026-04-22 19:43 | 33.90695 | -119.05954 | 13254 ft | 327 kts | 248° |
| 2026-04-22 19:43 | 33.89759 | -119.08455 | 13745 ft | 328 kts | 249° |
| 2026-04-22 19:44 | 33.88842 | -119.10974 | 14202 ft | 330 kts | 249° |
| 2026-04-22 19:44 | 33.87927 | -119.13507 | 14668 ft | 330 kts | 249° |
| 2026-04-22 19:44 | 33.87009 | -119.16041 | 15112 ft | 331 kts | 249° |
| 2026-04-22 19:44 | 33.86087 | -119.18582 | 15556 ft | 332 kts | 249° |
| 2026-04-22 19:45 | 33.85160 | -119.21127 | 15988 ft | 333 kts | 249° |
| 2026-04-22 19:45 | 33.84227 | -119.23688 | 16410 ft | 334 kts | 249° |
| 2026-04-22 19:45 | 33.83295 | -119.26240 | 16858 ft | 334 kts | 250° |
| 2026-04-22 19:45 | 33.82355 | -119.28811 | 17268 ft | 336 kts | 250° |
| 2026-04-22 19:46 | 33.81413 | -119.31383 | 17707 ft | 337 kts | 249° |
| 2026-04-22 19:46 | 33.80254 | -119.33851 | 18098 ft | 342 kts | 239° |
| 2026-04-22 19:46 | 33.78720 | -119.36069 | 18514 ft | 349 kts | 230° |
| 2026-04-22 19:46 | 33.76858 | -119.37980 | 18846 ft | 355 kts | 223° |
| 2026-04-22 19:47 | 33.74895 | -119.39778 | 19178 ft | 356 kts | 224° |
| 2026-04-22 19:47 | 33.72932 | -119.41614 | 19503 ft | 356 kts | 224° |
| 2026-04-22 19:47 | 33.70982 | -119.43449 | 19869 ft | 357 kts | 224° |
| 2026-04-22 19:47 | 33.69020 | -119.45295 | 20177 ft | 359 kts | 224° |
| 2026-04-22 19:48 | 33.67051 | -119.47145 | 20488 ft | 360 kts | 224° |
| 2026-04-22 19:48 | 33.65073 | -119.48999 | 20817 ft | 361 kts | 224° |
| 2026-04-22 19:48 | 33.63087 | -119.50859 | 21132 ft | 363 kts | 224° |
| 2026-04-22 19:48 | 33.61094 | -119.52723 | 21447 ft | 364 kts | 224° |
| 2026-04-22 19:49 | 33.59090 | -119.54597 | 21738 ft | 366 kts | 224° |
| 2026-04-22 19:49 | 33.57069 | -119.56485 | 22011 ft | 369 kts | 224° |
| 2026-04-22 19:49 | 33.55047 | -119.58373 | 22334 ft | 370 kts | 224° |
| 2026-04-22 19:49 | 33.53013 | -119.60270 | 22635 ft | 371 kts | 223° |
| 2026-04-22 19:50 | 33.50971 | -119.62174 | 22949 ft | 373 kts | 223° |
| 2026-04-22 19:50 | 33.48922 | -119.64084 | 23257 ft | 374 kts | 223° |
| 2026-04-22 19:50 | 33.46890 | -119.65977 | 23531 ft | 376 kts | 223° |
| 2026-04-22 19:50 | 33.44823 | -119.67900 | 23825 ft | 377 kts | 223° |
| 2026-04-22 19:51 | 33.42746 | -119.69833 | 24053 ft | 379 kts | 223° |
| 2026-04-22 19:51 | 33.40664 | -119.71769 | 24288 ft | 380 kts | 223° |
| 2026-04-22 19:51 | 33.38573 | -119.73712 | 24538 ft | 381 kts | 223° |
| 2026-04-22 19:51 | 33.36471 | -119.75663 | 24785 ft | 383 kts | 223° |
| 2026-04-22 19:52 | 33.34364 | -119.77619 | 25028 ft | 384 kts | 223° |
| 2026-04-22 19:52 | 33.32249 | -119.79580 | 25280 ft | 385 kts | 223° |
| 2026-04-22 19:52 | 33.30121 | -119.81552 | 25537 ft | 387 kts | 223° |
| 2026-04-22 19:52 | 33.27990 | -119.83526 | 25780 ft | 389 kts | 224° |
| 2026-04-22 19:53 | 33.25849 | -119.85508 | 26020 ft | 391 kts | 224° |
| 2026-04-22 19:53 | 33.23694 | -119.87502 | 26311 ft | 392 kts | 224° |
| 2026-04-22 19:53 | 33.21535 | -119.89498 | 26606 ft | 393 kts | 224° |
| 2026-04-22 19:53 | 33.19368 | -119.91500 | 26884 ft | 395 kts | 224° |
| 2026-04-22 19:54 | 33.17195 | -119.93508 | 27176 ft | 396 kts | 224° |
| 2026-04-22 19:54 | 33.15034 | -119.95502 | 27465 ft | 398 kts | 224° |
| 2026-04-22 19:54 | 33.12816 | -119.97548 | 27784 ft | 399 kts | 224° |
| 2026-04-22 19:54 | 33.10625 | -119.99565 | 28193 ft | 397 kts | 224° |
| 2026-04-22 19:55 | 33.08433 | -120.01583 | 28495 ft | 399 kts | 224° |
| 2026-04-22 19:55 | 33.06229 | -120.03613 | 28782 ft | 401 kts | 224° |
| 2026-04-22 19:55 | 33.04022 | -120.05644 | 29092 ft | 402 kts | 224° |
| 2026-04-22 19:55 | 33.01797 | -120.07688 | 29406 ft | 404 kts | 224° |
| 2026-04-22 19:56 | 32.99566 | -120.09737 | 29714 ft | 405 kts | 224° |
| 2026-04-22 19:56 | 32.97327 | -120.11792 | 30028 ft | 407 kts | 224° |
| 2026-04-22 19:56 | 32.95085 | -120.13848 | 30388 ft | 407 kts | 224° |
| 2026-04-22 19:56 | 32.92841 | -120.15905 | 30691 ft | 408 kts | 224° |
| 2026-04-22 19:57 | 32.90590 | -120.17966 | 30998 ft | 408 kts | 225° |
| 2026-04-22 19:57 | 32.88343 | -120.20024 | 31312 ft | 408 kts | 225° |
| 2026-04-22 19:57 | 32.86090 | -120.22085 | 31609 ft | 408 kts | 225° |
| 2026-04-22 19:57 | 32.83842 | -120.24140 | 31907 ft | 409 kts | 225° |
| 2026-04-22 19:58 | 32.81592 | -120.26196 | 32167 ft | 409 kts | 225° |
| 2026-04-22 19:58 | 32.79319 | -120.28274 | 32248 ft | 415 kts | 225° |
| 2026-04-22 19:58 | 32.74690 | -120.32507 | 32249 ft | 430 kts | 225° |
| 2026-04-22 20:00 | 32.57859 | -120.47798 | 32253 ft | 435 kts | 225° |
| 2026-04-22 20:01 | 32.53053 | -120.52158 | 32254 ft | 435 kts | 225° |
| 2026-04-22 20:01 | 32.48238 | -120.56523 | 32247 ft | 436 kts | 225° |
| 2026-04-22 20:02 | 32.43423 | -120.60879 | 32253 ft | 436 kts | 225° |
| 2026-04-22 20:02 | 32.38599 | -120.65239 | 32253 ft | 436 kts | 225° |
| 2026-04-22 20:03 | 32.33774 | -120.69593 | 32250 ft | 436 kts | 225° |
| 2026-04-22 20:03 | 32.28949 | -120.73940 | 32256 ft | 436 kts | 225° |
| 2026-04-22 20:04 | 32.24126 | -120.78281 | 32255 ft | 436 kts | 225° |
| 2026-04-22 20:04 | 32.19299 | -120.82619 | 32230 ft | 437 kts | 225° |
| 2026-04-22 20:05 | 32.14450 | -120.86972 | 32252 ft | 438 kts | 225° |
| 2026-04-22 20:05 | 32.09599 | -120.91318 | 32251 ft | 438 kts | 225° |
| 2026-04-22 20:06 | 32.04776 | -120.95635 | 32258 ft | 438 kts | 225° |